Time;durP1;ratioP1;P1;durP2;ratioP2;P2;SDS_P1;SDS_P2;PMS_P1;PMS_P2;Temp;Humidity;BMP_temperature;BMP_pressure;BME280_temperature;BME280_humidity;BME280_pressure;Samples;Min_cycle;Max_cycle;Signal;HPM_P1;HPM_P2
2024/01/10 05:05:25;;;;;;;0.52;0.52;;;-2.60;99.90;;;;;;6089436;23;20249;31
2024/01/10 05:07:51;;;;;;;0.40;0.40;;;-2.50;99.90;;;;;;4878779;29;20236;-66
2024/01/10 05:10:16;;;;;;;0.40;0.40;;;-2.50;99.90;;;;;;4880522;29;20226;-65
2024/01/10 05:12:42;;;;;;;0.47;0.47;;;-2.50;99.90;;;;;;4881256;29;20219;-66
2024/01/10 05:15:08;;;;;;;0.40;0.40;;;-2.50;99.90;;;;;;4879351;29;20181;-66
2024/01/10 05:17:33;;;;;;;0.40;0.40;;;-2.50;99.90;;;;;;4862679;29;20174;-65
2024/01/10 05:19:59;;;;;;;0.43;0.43;;;-2.50;99.90;;;;;;4862425;29;20778;-67
2024/01/10 05:22:25;;;;;;;0.50;0.50;;;-2.50;99.90;;;;;;4862283;29;20268;-66
2024/01/10 05:24:50;;;;;;;0.40;0.40;;;-2.50;99.90;;;;;;4860599;29;20184;-66
2024/01/10 05:27:16;;;;;;;0.50;0.50;;;-2.50;99.90;;;;;;4868073;29;20471;-66
2024/01/10 05:29:41;;;;;;;1.70;1.70;;;-2.60;99.90;;;;;;4845872;29;20542;-66
2024/01/10 05:32:07;;;;;;;0.40;0.40;;;-2.60;99.90;;;;;;4861970;29;20262;-67
2024/01/10 05:34:33;;;;;;;0.50;0.50;;;-2.50;99.90;;;;;;4860017;29;20185;-67
2024/01/10 05:36:58;;;;;;;0.50;0.50;;;-2.60;99.90;;;;;;4860017;29;20209;-66
2024/01/10 05:39:24;;;;;;;0.60;0.60;;;-2.50;99.90;;;;;;4850456;29;20187;-67
2024/01/10 05:41:50;;;;;;;0.40;0.40;;;-2.60;99.90;;;;;;4843337;29;20192;-66
2024/01/10 05:44:15;;;;;;;0.40;0.40;;;-2.60;99.90;;;;;;4843219;29;20177;-67
2024/01/10 05:46:42;;;;;;;0.47;0.47;;;-2.60;99.90;;;;;;4854074;29;20899;-66
2024/01/10 05:49:08;;;;;;;0.47;0.47;;;-2.50;99.90;;;;;;4859306;29;20178;-67
2024/01/10 05:51:34;;;;;;;0.40;0.40;;;-2.50;99.90;;;;;;4860184;29;20222;-66
2024/01/10 05:54:00;;;;;;;0.40;0.40;;;-2.60;99.90;;;;;;4860233;29;20208;-66
2024/01/10 05:56:27;;;;;;;0.40;0.40;;;-2.60;99.90;;;;;;4841744;29;20615;-66
2024/01/10 05:58:52;;;;;;;0.45;0.45;;;-2.60;99.90;;;;;;4843458;29;20614;-66
2024/01/10 06:01:18;;;;;;;0.40;0.40;;;-2.60;99.90;;;;;;4859322;29;20268;-66
2024/01/10 06:03:43;;;;;;;0.50;0.50;;;-2.60;99.90;;;;;;4861161;29;20625;-69
2024/01/10 06:06:09;;;;;;;0.50;0.50;;;-2.60;99.90;;;;;;4855188;29;20253;-65
2024/01/10 06:08:35;;;;;;;0.40;0.40;;;-2.60;99.90;;;;;;4842458;29;20649;-67
2024/01/10 06:11:08;;;;;;;0.50;0.50;;;-2.50;99.90;;;;;;4852467;29;20184;-65
2024/01/10 06:13:34;;;;;;;0.52;0.52;;;-2.60;99.90;;;;;;4860329;29;20519;-66
2024/01/10 06:16:02;;;;;;;0.50;0.50;;;-2.50;99.90;;;;;;4860647;29;20212;-65
2024/01/10 06:18:28;;;;;;;0.40;0.40;;;-2.50;99.90;;;;;;4861431;29;20195;-66
2024/01/10 06:20:54;;;;;;;0.40;0.40;;;-2.50;99.90;;;;;;4843782;29;20189;-65
2024/01/10 06:23:19;;;;;;;0.50;0.50;;;-2.40;99.90;;;;;;4842911;29;20190;-64
2024/01/10 06:25:45;;;;;;;0.50;0.50;;;-2.30;99.90;;;;;;4842212;29;20209;-64
2024/01/10 06:28:11;;;;;;;0.40;0.40;;;-2.30;99.90;;;;;;4841189;29;20307;-64
2024/01/10 06:30:36;;;;;;;0.40;0.40;;;-2.30;99.90;;;;;;4842638;29;20665;-64
2024/01/10 06:33:02;;;;;;;0.40;0.40;;;-2.20;99.90;;;;;;4842775;29;20220;-64
2024/01/10 06:35:27;;;;;;;0.50;0.50;;;-2.20;99.90;;;;;;4841972;29;20248;-64
2024/01/10 06:37:53;;;;;;;0.47;0.47;;;-2.20;99.90;;;;;;4859143;29;20243;-63
2024/01/10 06:40:21;;;;;;;0.40;0.40;;;-2.20;99.90;;;;;;4860898;29;20183;-64
2024/01/10 06:42:47;;;;;;;0.50;0.50;;;-2.20;99.90;;;;;;4860503;29;20214;-65
2024/01/10 06:45:14;;;;;;;1.03;1.03;;;-2.20;99.90;;;;;;4860315;29;20203;-64
2024/01/10 06:47:39;;;;;;;0.50;0.50;;;-2.20;99.90;;;;;;4860486;29;20340;-63
2024/01/10 06:50:06;;;;;;;0.40;0.40;;;-2.30;99.90;;;;;;4860910;29;20173;-64
2024/01/10 06:52:31;;;;;;;0.30;0.30;;;-2.30;99.90;;;;;;4846082;29;20187;-63
2024/01/10 06:54:57;;;;;;;0.90;0.90;;;-2.40;99.90;;;;;;4841621;29;20594;-64
2024/01/10 06:57:23;;;;;;;0.40;0.40;;;-2.30;99.90;;;;;;4842545;29;20517;-64
2024/01/10 06:59:49;;;;;;;0.40;0.40;;;-2.40;99.90;;;;;;4842149;29;20660;-64
2024/01/10 07:02:15;;;;;;;0.40;0.40;;;-2.40;99.90;;;;;;4841045;29;20237;-63
2024/01/10 07:04:40;;;;;;;0.38;0.38;;;-2.40;99.90;;;;;;4844904;29;20425;-63
2024/01/10 07:07:08;;;;;;;0.50;0.50;;;-2.40;99.90;;;;;;4849380;29;20244;-65
2024/01/10 07:09:34;;;;;;;0.40;0.40;;;-2.40;99.90;;;;;;4842090;29;20198;-67
2024/01/10 07:11:59;;;;;;;0.50;0.50;;;-2.40;99.90;;;;;;4852082;29;20253;-67
2024/01/10 07:14:25;;;;;;;0.57;0.57;;;-2.40;99.90;;;;;;4860247;29;20178;-65
2024/01/10 07:16:51;;;;;;;0.40;0.40;;;-2.40;99.90;;;;;;4851482;29;20712;-65
2024/01/10 07:19:17;;;;;;;0.40;0.40;;;-2.50;99.90;;;;;;4856382;29;20586;-64
2024/01/10 07:21:43;;;;;;;0.40;0.40;;;-2.40;99.90;;;;;;4860432;29;20182;-65
2024/01/10 07:24:09;;;;;;;0.50;0.50;;;-2.50;99.90;;;;;;4859933;29;20649;-65
2024/01/10 07:26:36;;;;;;;0.45;0.45;;;-2.50;99.90;;;;;;4859984;29;20539;-64
2024/01/10 07:29:02;;;;;;;0.50;0.50;;;-2.50;99.90;;;;;;4860149;29;20205;-64
2024/01/10 07:31:29;;;;;;;0.47;0.47;;;-2.50;99.90;;;;;;4860334;29;20172;-64
2024/01/10 07:33:57;;;;;;;0.40;0.40;;;-2.50;99.90;;;;;;4850726;29;20184;-65
2024/01/10 07:36:26;;;;;;;0.40;0.40;;;-2.50;99.90;;;;;;4844472;29;20293;-64
2024/01/10 07:38:52;;;;;;;0.50;0.50;;;-2.50;99.90;;;;;;4880915;29;20178;-65
2024/01/10 07:41:18;;;;;;;0.40;0.40;;;-2.50;99.90;;;;;;4882689;29;20715;-64
2024/01/10 07:43:44;;;;;;;0.40;0.40;;;-2.50;99.90;;;;;;4864699;29;20266;-65
2024/01/10 07:46:09;;;;;;;0.50;0.50;;;-2.50;99.90;;;;;;4863437;29;20224;-65
2024/01/10 07:48:35;;;;;;;0.40;0.40;;;-2.50;99.90;;;;;;4863439;29;20214;-65
2024/01/10 07:51:04;;;;;;;0.40;0.40;;;-2.40;99.90;;;;;;4869928;29;20180;-70
2024/01/10 07:53:30;;;;;;;0.50;0.50;;;-2.40;99.90;;;;;;4872224;29;20417;-64
2024/01/10 07:55:55;;;;;;;0.40;0.40;;;-2.40;99.90;;;;;;4881860;29;20680;-65
2024/01/10 07:58:27;;;;;;;0.40;0.40;;;-2.30;99.90;;;;;;4867274;29;20264;-70
2024/01/10 08:00:54;;;;;;;1.05;1.05;;;-2.30;99.90;;;;;;4863300;29;20184;-65
2024/01/10 08:03:19;;;;;;;0.40;0.40;;;-2.30;99.90;;;;;;4863337;29;20184;-65
2024/01/10 08:05:46;;;;;;;1.20;1.20;;;-2.20;99.90;;;;;;4863042;29;20699;-63
2024/01/10 08:08:13;;;;;;;0.50;0.50;;;-2.00;99.90;;;;;;4850426;29;20213;-65
2024/01/10 08:10:39;;;;;;;0.40;0.40;;;-2.00;99.90;;;;;;4844927;29;20676;-65
2024/01/10 08:13:05;;;;;;;0.40;0.40;;;-1.90;99.90;;;;;;4828299;29;20187;-65
2024/01/10 08:15:34;;;;;;;0.43;0.43;;;-1.90;99.90;;;;;;4844726;29;20515;-64
2024/01/10 08:18:02;;;;;;;0.40;0.40;;;-1.90;99.90;;;;;;4844729;29;20188;-65
2024/01/10 08:20:28;;;;;;;0.40;0.40;;;-1.80;99.90;;;;;;4843705;29;20188;-65
2024/01/10 08:22:54;;;;;;;0.40;0.40;;;-1.70;99.90;;;;;;4855262;29;20240;-65
2024/01/10 08:25:19;;;;;;;0.40;0.40;;;-1.60;99.90;;;;;;4863039;29;20438;-63
2024/01/10 08:27:45;;;;;;;0.40;0.40;;;-1.60;99.90;;;;;;4862846;29;20206;-66
2024/01/10 08:30:11;;;;;;;0.80;0.80;;;-1.40;99.90;;;;;;4863026;29;20207;-70
2024/01/10 08:32:37;;;;;;;0.40;0.40;;;-1.30;99.90;;;;;;4862870;29;20655;-67
2024/01/10 08:35:08;;;;;;;0.50;0.50;;;-1.10;99.90;;;;;;4862619;29;20183;-69
2024/01/10 08:37:34;;;;;;;0.40;0.40;;;-0.80;99.90;;;;;;4854595;29;20233;-64
2024/01/10 08:40:01;;;;;;;0.40;0.40;;;-0.50;99.90;;;;;;4844553;29;20184;-64
2024/01/10 08:42:26;;;;;;;1.20;1.10;;;-0.10;99.90;;;;;;4844495;29;20184;-64
2024/01/10 08:44:53;;;;;;;0.30;0.30;;;0.30;99.90;;;;;;4843947;29;20176;-64
2024/01/10 08:47:19;;;;;;;0.40;0.40;;;0.80;99.90;;;;;;4850223;29;20284;-64
2024/01/10 08:49:45;;;;;;;0.40;0.40;;;1.20;99.60;;;;;;4862998;29;20190;-66
2024/01/10 08:52:11;;;;;;;0.63;0.63;;;1.70;97.90;;;;;;4857582;29;20503;-65
2024/01/10 08:54:37;;;;;;;0.30;0.30;;;2.20;97.10;;;;;;4843943;29;20564;-65
2024/01/10 08:57:03;;;;;;;0.30;0.30;;;2.60;96.50;;;;;;4844153;29;20207;-65
2024/01/10 08:59:29;;;;;;;0.30;0.30;;;3.10;96.20;;;;;;4844129;29;20249;-65
2024/01/10 09:01:54;;;;;;;0.30;0.30;;;3.60;94.10;;;;;;4843889;29;20180;-66
2024/01/10 09:04:20;;;;;;;0.30;0.30;;;4.00;91.90;;;;;;4843888;29;20422;-66
2024/01/10 09:06:46;;;;;;;0.33;0.33;;;4.20;92.60;;;;;;4845792;29;20204;-65
2024/01/10 09:09:12;;;;;;;0.45;0.45;;;4.70;91.90;;;;;;4862325;29;20183;-66
2024/01/10 09:11:38;;;;;;;2.25;0.60;;;5.20;91.60;;;;;;4862102;29;20653;-65
2024/01/10 09:14:04;;;;;;;0.30;0.20;;;5.70;89.50;;;;;;4844926;29;20271;-67
2024/01/10 09:16:30;;;;;;;0.50;0.50;;;5.90;86.80;;;;;;4843651;29;20430;-66
2024/01/10 09:18:57;;;;;;;0.43;0.43;;;6.00;85.90;;;;;;4843924;29;20710;-66
2024/01/10 09:21:24;;;;;;;0.30;0.30;;;6.30;88.00;;;;;;4843849;29;20214;-65
2024/01/10 09:23:51;;;;;;;0.30;0.30;;;6.70;87.30;;;;;;4843830;29;20400;-65
2024/01/10 09:26:18;;;;;;;0.30;0.30;;;7.00;86.80;;;;;;4843462;29;20411;-65
2024/01/10 09:28:43;;;;;;;0.70;0.70;;;7.40;85.90;;;;;;4861297;29;20471;-65
2024/01/10 09:31:09;;;;;;;0.30;0.20;;;7.60;84.70;;;;;;4862271;29;20447;-64
2024/01/10 09:33:35;;;;;;;0.30;0.23;;;7.80;80.60;;;;;;4865644;29;20184;-65
2024/01/10 09:36:00;;;;;;;0.30;0.30;;;7.80;78.10;;;;;;4861711;29;20203;-66
2024/01/10 09:38:26;;;;;;;0.53;0.53;;;7.60;80.20;;;;;;4861845;29;20192;-64
2024/01/10 09:41:01;;;;;;;0.40;0.40;;;7.40;77.90;;;;;;4862012;29;20207;-65
2024/01/10 09:43:27;;;;;;;0.40;0.40;;;7.30;82.00;;;;;;4849792;29;20177;-65
2024/01/10 09:45:54;;;;;;;0.30;0.30;;;7.40;78.00;;;;;;4841908;29;20449;-65
2024/01/10 09:48:20;;;;;;;0.30;0.30;;;7.30;77.40;;;;;;4843442;29;20493;-65
2024/01/10 09:50:50;;;;;;;0.30;0.30;;;7.30;81.50;;;;;;4843283;29;20435;-65
2024/01/10 09:53:23;;;;;;;0.30;0.30;;;7.30;80.90;;;;;;4843306;29;20208;-65
2024/01/10 09:55:49;;;;;;;0.40;0.40;;;7.20;76.40;;;;;;4842455;29;20519;-65
2024/01/10 09:58:15;;;;;;;0.47;0.47;;;7.10;77.60;;;;;;4853776;29;20469;-65
2024/01/10 10:00:40;;;;;;;0.30;0.30;;;7.10;76.80;;;;;;4861682;29;20468;-65
2024/01/10 10:03:13;;;;;;;0.30;0.30;;;7.00;79.60;;;;;;4861504;29;20183;-66
2024/01/10 10:05:41;;;;;;;0.30;0.30;;;7.00;78.30;;;;;;4861095;29;20442;-65
2024/01/10 10:08:09;;;;;;;0.30;0.30;;;7.10;79.00;;;;;;4861226;29;20473;-65
2024/01/10 10:10:35;;;;;;;0.40;0.40;;;6.90;77.10;;;;;;4861561;29;20898;-65
2024/01/10 10:13:02;;;;;;;0.30;0.30;;;6.90;78.30;;;;;;4852856;29;20498;-65
2024/01/10 10:15:27;;;;;;;0.30;0.30;;;6.80;77.50;;;;;;4842613;29;20230;-65
2024/01/10 10:17:54;;;;;;;0.40;0.40;;;6.70;77.40;;;;;;4841753;29;20564;-66
2024/01/10 10:20:23;;;;;;;0.30;0.20;;;6.60;79.30;;;;;;4842915;29;20327;-64
2024/01/10 10:23:12;;;;;;;1.07;1.07;;;6.60;78.30;;;;;;4842879;29;20774;-66
2024/01/10 10:25:43;;;;;;;4.70;2.00;;;6.80;80.40;;;;;;4842289;29;21067;-65
2024/01/10 10:28:08;;;;;;;1.10;0.97;;;6.90;79.30;;;;;;4852215;29;20554;-66
2024/01/10 10:30:34;;;;;;;0.30;0.30;;;6.80;78.50;;;;;;4861338;29;20473;-66
2024/01/10 10:33:02;;;;;;;0.30;0.30;;;6.80;78.00;;;;;;4860646;29;20711;-65
2024/01/10 10:35:27;;;;;;;0.30;0.30;;;6.80;79.70;;;;;;4860338;29;20436;-66
2024/01/10 10:37:54;;;;;;;0.40;0.40;;;6.90;77.90;;;;;;4860929;29;20947;-65
2024/01/10 10:40:20;;;;;;;1.37;1.27;;;7.10;78.20;;;;;;4861073;29;20193;-66
2024/01/10 10:42:48;;;;;;;0.30;0.30;;;7.00;78.50;;;;;;4854051;29;20408;-65
2024/01/10 10:45:18;;;;;;;1.40;1.40;;;7.10;78.60;;;;;;4842097;29;20488;-65
2024/01/10 10:47:49;;;;;;;0.33;0.33;;;7.10;78.20;;;;;;4842570;29;20947;-65
2024/01/10 10:50:25;;;;;;;0.50;0.50;;;7.10;77.90;;;;;;4842733;29;20417;-65
2024/01/10 10:52:51;;;;;;;0.30;0.30;;;7.00;78.30;;;;;;4842553;29;20475;-66
2024/01/10 10:55:18;;;;;;;0.30;0.20;;;7.00;78.60;;;;;;4842070;29;20437;-66
2024/01/10 10:57:48;;;;;;;0.30;0.30;;;6.90;78.30;;;;;;4848806;29;20462;-65
2024/01/10 11:00:17;;;;;;;1.13;0.57;;;6.60;77.60;;;;;;4859721;29;20418;-65
2024/01/10 11:02:45;;;;;;;0.30;0.30;;;6.40;78.50;;;;;;4860504;29;20490;-65
2024/01/10 11:05:11;;;;;;;0.57;0.57;;;6.40;79.40;;;;;;4860227;29;20431;-66
2024/01/10 11:07:38;;;;;;;0.30;0.30;;;6.40;79.00;;;;;;4859548;29;20562;-66
2024/01/10 11:10:20;;;;;;;0.40;0.40;;;6.40;80.00;;;;;;4860880;29;20424;-66
2024/01/10 11:13:25;;;;;;;0.30;0.30;;;6.30;78.50;;;;;;4853460;29;20431;-67
2024/01/10 11:15:54;;;;;;;0.30;0.30;;;6.30;78.70;;;;;;4841727;29;20796;-66
2024/01/10 11:18:44;;;;;;;0.30;0.30;;;6.20;79.20;;;;;;4842139;29;20177;-66
2024/01/10 11:21:25;;;;;;;0.30;0.30;;;5.90;79.00;;;;;;4842337;29;20185;-66
2024/01/10 11:23:54;;;;;;;0.50;0.50;;;5.30;79.80;;;;;;4842144;29;20184;-65
2024/01/10 11:26:20;;;;;;;0.30;0.30;;;4.80;81.50;;;;;;4849939;29;20212;-64
2024/01/10 11:28:46;;;;;;;0.40;0.40;;;4.20;81.00;;;;;;4848144;29;20261;-65
2024/01/10 11:31:15;;;;;;;0.50;0.50;;;3.80;83.00;;;;;;4841968;29;20486;-65
2024/01/10 11:33:42;;;;;;;1.83;1.83;;;3.30;84.10;;;;;;4851806;29;20192;-65
2024/01/10 11:36:19;;;;;;;0.40;0.40;;;3.00;85.20;;;;;;4857499;29;20256;-65
2024/01/10 11:38:54;;;;;;;0.40;0.40;;;2.90;86.80;;;;;;4841912;29;20173;-67
2024/01/10 11:41:29;;;;;;;2.75;2.55;;;2.70;87.60;;;;;;4848111;29;20189;-65
2024/01/10 11:44:15;;;;;;;0.60;0.60;;;2.40;88.50;;;;;;4842082;29;20184;-65
2024/01/10 11:46:46;;;;;;;1.23;1.23;;;2.20;89.50;;;;;;4843660;29;20619;-66
2024/01/10 11:49:17;;;;;;;0.40;0.40;;;2.00;90.10;;;;;;4860403;29;20181;-66
2024/01/10 11:51:49;;;;;;;0.40;0.40;;;2.00;90.40;;;;;;4859966;29;20255;-65
2024/01/10 11:54:35;;;;;;;0.40;0.40;;;1.90;90.80;;;;;;4860865;29;20553;-67
2024/01/10 11:57:01;;;;;;;0.30;0.30;;;1.90;90.80;;;;;;4860914;29;20239;-66
2024/01/10 11:59:27;;;;;;;0.73;0.73;;;1.80;91.30;;;;;;4867802;29;20177;-66
2024/01/10 12:01:54;;;;;;;0.47;0.47;;;1.80;91.30;;;;;;4867765;29;20174;-64
2024/01/10 12:04:21;;;;;;;0.40;0.40;;;1.70;91.40;;;;;;4868200;29;20187;-65
2024/01/10 12:06:47;;;;;;;0.40;0.40;;;1.80;91.80;;;;;;4866897;29;20260;-66
2024/01/10 12:09:14;;;;;;;0.30;0.30;;;1.70;91.70;;;;;;4878788;29;20171;-65
2024/01/10 12:11:41;;;;;;;0.50;0.50;;;1.70;92.00;;;;;;4876347;29;20469;-65
2024/01/10 12:14:08;;;;;;;0.40;0.40;;;1.70;92.40;;;;;;4859957;29;20171;-64
2024/01/10 12:16:33;;;;;;;0.30;0.30;;;1.80;92.50;;;;;;4858876;29;20197;-64
2024/01/10 12:18:59;;;;;;;0.30;0.30;;;1.80;92.40;;;;;;4841870;29;20181;-66
2024/01/10 12:21:25;;;;;;;0.30;0.30;;;1.70;92.40;;;;;;4844629;29;20181;-67
2024/01/10 12:23:51;;;;;;;1.63;1.53;;;1.70;92.40;;;;;;4844822;29;20188;-65
2024/01/10 12:26:18;;;;;;;0.40;0.40;;;1.60;92.50;;;;;;4844108;29;20193;-65
2024/01/10 12:28:58;;;;;;;0.30;0.30;;;1.60;92.70;;;;;;4827985;29;20212;-64
2024/01/10 12:31:26;;;;;;;0.40;0.40;;;1.60;92.90;;;;;;4844384;29;20673;-65
2024/01/10 12:33:52;;;;;;;0.50;0.50;;;1.60;93.20;;;;;;4844267;29;20185;-64
2024/01/10 12:36:19;;;;;;;0.30;0.30;;;1.70;93.30;;;;;;4844105;29;20672;-66
2024/01/10 12:38:45;;;;;;;0.50;0.50;;;1.70;93.20;;;;;;4845852;29;20274;-66
2024/01/10 12:41:14;;;;;;;0.30;0.30;;;1.70;93.10;;;;;;4862967;29;20267;-65
2024/01/10 12:43:40;;;;;;;0.40;0.40;;;1.70;93.20;;;;;;4845753;29;20433;-65
2024/01/10 12:46:07;;;;;;;0.43;0.43;;;1.70;93.20;;;;;;4843522;29;20192;-66
2024/01/10 12:48:37;;;;;;;0.30;0.30;;;1.80;93.70;;;;;;4859205;29;20212;-65
2024/01/10 12:51:06;;;;;;;0.55;0.55;;;1.80;93.50;;;;;;4861863;29;20207;-65
2024/01/10 12:53:43;;;;;;;0.40;0.40;;;1.80;93.50;;;;;;4861493;29;20184;-66
2024/01/10 12:56:13;;;;;;;0.30;0.30;;;1.80;93.30;;;;;;4861994;29;20195;-65
2024/01/10 12:58:41;;;;;;;0.77;0.77;;;1.80;93.40;;;;;;4845546;29;20188;-65
2024/01/10 13:01:08;;;;;;;0.40;0.40;;;1.80;93.50;;;;;;4858813;29;20187;-64
2024/01/10 13:03:34;;;;;;;0.30;0.30;;;1.80;93.40;;;;;;4844168;29;20176;-65
2024/01/10 13:06:01;;;;;;;0.40;0.40;;;1.80;93.60;;;;;;4843717;29;20267;-63
2024/01/10 13:08:26;;;;;;;0.30;0.30;;;1.90;93.90;;;;;;4843935;29;20213;-65
2024/01/10 13:10:53;;;;;;;0.33;0.33;;;1.90;93.70;;;;;;4843967;29;20224;-64
2024/01/10 13:13:21;;;;;;;0.40;0.40;;;1.90;93.80;;;;;;4843758;29;20410;-64
2024/01/10 13:15:48;;;;;;;0.30;0.30;;;1.90;94.10;;;;;;4843228;29;20200;-68
2024/01/10 13:18:15;;;;;;;1.15;1.15;;;2.00;94.30;;;;;;4854114;29;20184;-64
2024/01/10 13:20:43;;;;;;;0.52;0.52;;;1.90;93.80;;;;;;4862160;29;20601;-64
2024/01/10 13:23:12;;;;;;;0.30;0.30;;;2.00;94.00;;;;;;4861632;29;20192;-64
2024/01/10 13:25:38;;;;;;;0.50;0.50;;;2.00;93.90;;;;;;4861634;29;20194;-64
2024/01/10 13:28:04;;;;;;;0.40;0.40;;;1.90;93.80;;;;;;4861898;29;20208;-64
2024/01/10 13:30:30;;;;;;;0.50;0.50;;;1.90;94.00;;;;;;4861817;29;20409;-64
2024/01/10 13:32:55;;;;;;;0.40;0.40;;;2.00;94.20;;;;;;4860348;29;20649;-65
2024/01/10 13:35:22;;;;;;;0.50;0.50;;;2.00;94.20;;;;;;4877194;29;20208;-65
2024/01/10 13:37:48;;;;;;;0.30;0.30;;;2.00;94.60;;;;;;4880699;29;20207;-65
2024/01/10 13:40:14;;;;;;;0.50;0.50;;;2.00;94.10;;;;;;4865298;29;20220;-64
2024/01/10 13:42:40;;;;;;;0.73;0.73;;;1.90;94.60;;;;;;4861758;29;20537;-64
2024/01/10 13:45:10;;;;;;;1.58;1.48;;;2.00;94.60;;;;;;4861268;29;20192;-64
2024/01/10 13:47:38;;;;;;;0.70;0.70;;;2.00;94.30;;;;;;4861830;29;20255;-64
2024/01/10 13:50:05;;;;;;;0.40;0.40;;;2.00;94.20;;;;;;4861066;29;20187;-65
2024/01/10 13:52:31;;;;;;;0.70;0.70;;;2.10;94.20;;;;;;4845332;29;20625;-64
2024/01/10 13:54:57;;;;;;;0.50;0.50;;;2.10;94.20;;;;;;4861198;29;20188;-65
2024/01/10 13:57:23;;;;;;;0.30;0.30;;;2.10;94.10;;;;;;4861610;29;21005;-64
2024/01/10 13:59:49;;;;;;;0.40;0.40;;;2.10;94.10;;;;;;4861663;29;20250;-64
2024/01/10 14:02:15;;;;;;;0.30;0.30;;;2.10;94.00;;;;;;4861817;29;20193;-65
2024/01/10 14:04:41;;;;;;;0.50;0.50;;;2.10;94.20;;;;;;4849551;29;20185;-65
2024/01/10 14:07:07;;;;;;;0.30;0.30;;;2.10;94.20;;;;;;4842847;29;20212;-64
2024/01/10 14:09:32;;;;;;;1.47;1.40;;;2.10;94.30;;;;;;4841761;29;20646;-64
2024/01/10 14:11:59;;;;;;;0.40;0.40;;;2.10;94.20;;;;;;4842990;29;20177;-65
2024/01/10 14:14:24;;;;;;;0.40;0.40;;;2.10;94.30;;;;;;4843047;29;20645;-65
2024/01/10 14:16:50;;;;;;;0.50;0.50;;;2.20;94.50;;;;;;4843159;29;20200;-65
2024/01/10 14:19:19;;;;;;;0.40;0.40;;;2.10;94.40;;;;;;4849615;29;20703;-64
2024/01/10 14:21:45;;;;;;;0.50;0.50;;;2.20;94.60;;;;;;4861206;29;20181;-65
2024/01/10 14:24:11;;;;;;;0.38;0.38;;;2.20;94.60;;;;;;4860614;29;20600;-65
2024/01/10 14:26:37;;;;;;;0.60;0.60;;;2.20;94.50;;;;;;4861098;29;20271;-65
2024/01/10 14:29:03;;;;;;;0.57;0.57;;;2.10;94.40;;;;;;4860821;29;20282;-64
2024/01/10 14:31:28;;;;;;;0.40;0.40;;;2.10;94.40;;;;;;4859946;29;20648;-64
2024/01/10 14:33:54;;;;;;;0.40;0.40;;;2.10;94.60;;;;;;4856608;29;20205;-66
2024/01/10 14:36:21;;;;;;;0.30;0.30;;;2.10;94.60;;;;;;4840765;29;20236;-65
2024/01/10 14:38:46;;;;;;;2.47;1.60;;;2.10;94.50;;;;;;4840946;29;20249;-66
2024/01/10 14:41:12;;;;;;;0.40;0.40;;;2.10;94.60;;;;;;4840867;29;20176;-68
2024/01/10 14:43:38;;;;;;;0.63;0.63;;;2.00;94.80;;;;;;4840737;29;20218;-64
2024/01/10 14:46:07;;;;;;;0.50;0.50;;;2.10;95.00;;;;;;4840653;29;20197;-67
2024/01/10 14:48:33;;;;;;;0.38;0.38;;;2.00;94.90;;;;;;4842275;29;20208;-65
2024/01/10 14:51:00;;;;;;;0.37;0.37;;;2.10;95.10;;;;;;4860185;29;20204;-64
2024/01/10 14:53:26;;;;;;;0.40;0.40;;;2.10;95.10;;;;;;4860570;29;20464;-64
2024/01/10 14:55:52;;;;;;;0.50;0.50;;;2.00;95.00;;;;;;4860379;29;20192;-64
2024/01/10 14:58:18;;;;;;;0.40;0.40;;;1.90;95.10;;;;;;4860744;29;20176;-67
2024/01/10 15:00:44;;;;;;;0.68;0.68;;;1.80;95.20;;;;;;4860799;29;20426;-65
2024/01/10 15:03:10;;;;;;;0.40;0.40;;;1.80;95.40;;;;;;4860636;29;20188;-65
2024/01/10 15:05:36;;;;;;;0.97;0.87;;;1.80;95.40;;;;;;4842827;29;20445;-64
2024/01/10 15:08:02;;;;;;;0.40;0.40;;;1.70;95.50;;;;;;4841819;29;20220;-66
2024/01/10 15:10:28;;;;;;;0.40;0.40;;;1.70;95.60;;;;;;4842150;29;20181;-64
2024/01/10 15:12:54;;;;;;;0.30;0.30;;;1.80;95.90;;;;;;4842471;29;20658;-65
2024/01/10 15:15:20;;;;;;;0.47;0.47;;;1.70;96.00;;;;;;4841977;29;20209;-64
2024/01/10 15:17:46;;;;;;;0.40;0.40;;;1.70;96.20;;;;;;4842370;29;20176;-65
2024/01/10 15:20:11;;;;;;;0.30;0.30;;;1.70;96.30;;;;;;4856237;29;20240;-65
2024/01/10 15:22:38;;;;;;;0.30;0.30;;;1.60;96.50;;;;;;4860954;29;20180;-65
2024/01/10 15:25:07;;;;;;;0.40;0.40;;;1.60;96.70;;;;;;4859696;29;20200;-65
2024/01/10 15:27:33;;;;;;;0.40;0.40;;;1.60;96.90;;;;;;4860444;29;20606;-65
2024/01/10 15:29:58;;;;;;;0.30;0.30;;;1.50;96.90;;;;;;4847671;29;20197;-65
2024/01/10 15:32:25;;;;;;;0.50;0.50;;;1.40;97.00;;;;;;4842034;29;20551;-65
2024/01/10 15:34:50;;;;;;;0.40;0.40;;;1.40;97.30;;;;;;4841917;29;20434;-64
2024/01/10 15:37:16;;;;;;;0.93;0.93;;;1.30;97.50;;;;;;4857112;29;20203;-64
2024/01/10 15:39:42;;;;;;;0.50;0.50;;;1.30;97.60;;;;;;4860461;29;20172;-65
2024/01/10 15:42:09;;;;;;;0.40;0.40;;;1.20;97.80;;;;;;4855017;29;20188;-64
2024/01/10 15:44:41;;;;;;;2.35;1.40;;;1.20;98.30;;;;;;4841647;29;20173;-64
2024/01/10 15:47:07;;;;;;;0.40;0.40;;;1.00;98.20;;;;;;4841780;29;20593;-63
2024/01/10 15:49:33;;;;;;;0.50;0.50;;;1.00;98.50;;;;;;4841903;29;20317;-64
2024/01/10 15:51:58;;;;;;;0.40;0.40;;;0.90;98.70;;;;;;4841701;29;20193;-65
2024/01/10 15:54:24;;;;;;;0.40;0.40;;;0.80;98.80;;;;;;4842506;29;20229;-64
2024/01/10 15:56:50;;;;;;;0.50;0.50;;;0.80;99.00;;;;;;4847600;29;20201;-64
2024/01/10 15:59:16;;;;;;;0.40;0.40;;;0.80;99.20;;;;;;4863948;29;20487;-67
2024/01/10 16:01:41;;;;;;;0.40;0.40;;;0.70;99.30;;;;;;4863366;29;20251;-64
2024/01/10 16:04:07;;;;;;;0.40;0.40;;;0.60;99.50;;;;;;4863565;29;20176;-65
2024/01/10 16:06:34;;;;;;;0.40;0.40;;;0.60;99.70;;;;;;4863124;29;20202;-64
2024/01/10 16:09:01;;;;;;;0.38;0.38;;;0.50;99.80;;;;;;4862813;29;20551;-64
2024/01/10 16:11:26;;;;;;;0.40;0.40;;;0.50;99.90;;;;;;4863021;29;20175;-65
2024/01/10 16:13:52;;;;;;;0.43;0.43;;;0.40;99.90;;;;;;4843905;29;20173;-65
2024/01/10 16:16:27;;;;;;;0.40;0.40;;;0.40;99.90;;;;;;4844690;29;20196;-64
2024/01/10 16:18:52;;;;;;;0.40;0.40;;;0.30;99.90;;;;;;4862842;29;20912;-64
2024/01/10 16:21:21;;;;;;;0.60;0.60;;;0.20;99.90;;;;;;4863423;29;20280;-64
2024/01/10 16:23:47;;;;;;;0.35;0.35;;;0.20;99.90;;;;;;4863252;29;20183;-65
2024/01/10 16:26:13;;;;;;;0.40;0.40;;;0.20;99.90;;;;;;4862874;29;20268;-64
2024/01/10 16:28:38;;;;;;;0.30;0.30;;;0.10;99.90;;;;;;4846617;29;20457;-66
2024/01/10 16:31:04;;;;;;;0.50;0.50;;;0.10;99.90;;;;;;4844609;29;20190;-66
2024/01/10 16:33:30;;;;;;;0.40;0.40;;;0.10;99.90;;;;;;4844548;29;20238;-65
2024/01/10 16:35:56;;;;;;;0.37;0.37;;;0.00;99.90;;;;;;4844259;29;20602;-64
2024/01/10 16:38:21;;;;;;;0.40;0.40;;;0.00;99.90;;;;;;4844815;29;20188;-65
2024/01/10 16:40:47;;;;;;;0.40;0.40;;;0.00;99.90;;;;;;4844701;29;20187;-64
2024/01/10 16:43:12;;;;;;;0.30;0.30;;;0.00;99.90;;;;;;4856833;29;20175;-65
2024/01/10 16:45:38;;;;;;;0.30;0.30;;;-0.10;99.90;;;;;;4862651;29;20196;-65
2024/01/10 16:48:04;;;;;;;0.40;0.40;;;-0.10;99.90;;;;;;4850820;29;20473;-65
2024/01/10 16:50:30;;;;;;;0.40;0.40;;;-0.10;99.90;;;;;;4844307;29;20183;-64
2024/01/10 16:53:00;;;;;;;0.45;0.45;;;-0.10;99.90;;;;;;4844148;29;20186;-65
2024/01/10 16:55:26;;;;;;;0.40;0.40;;;-0.10;99.90;;;;;;4850519;29;20299;-66
2024/01/10 16:57:53;;;;;;;0.37;0.37;;;-0.20;99.90;;;;;;4845241;29;20208;-65
2024/01/10 17:00:19;;;;;;;0.50;0.50;;;-0.20;99.90;;;;;;4862370;29;20420;-65
2024/01/10 17:02:46;;;;;;;0.90;0.90;;;-0.20;99.90;;;;;;4862364;29;20258;-65
2024/01/10 17:05:12;;;;;;;0.47;0.47;;;-0.20;99.90;;;;;;4844952;29;20963;-67
2024/01/10 17:07:38;;;;;;;0.40;0.40;;;-0.20;99.90;;;;;;4861459;29;20263;-65
2024/01/10 17:10:04;;;;;;;0.47;0.47;;;-0.20;99.90;;;;;;4861330;29;20675;-65
2024/01/10 17:12:30;;;;;;;0.40;0.40;;;-0.20;99.90;;;;;;4854228;29;20196;-65
2024/01/10 17:14:56;;;;;;;0.40;0.40;;;-0.30;99.90;;;;;;4826548;29;20187;-64
2024/01/10 17:17:21;;;;;;;0.60;0.60;;;-0.30;99.90;;;;;;4847689;29;20183;-66
2024/01/10 17:19:47;;;;;;;0.40;0.40;;;-0.40;99.90;;;;;;4857225;29;20181;-66
2024/01/10 17:22:13;;;;;;;0.60;0.60;;;-0.40;99.90;;;;;;4843975;29;20275;-66
2024/01/10 17:24:39;;;;;;;0.50;0.50;;;-0.40;99.90;;;;;;4843074;29;20271;-66
2024/01/10 17:27:05;;;;;;;0.40;0.40;;;-0.50;99.90;;;;;;4849507;29;20355;-66
2024/01/10 17:29:30;;;;;;;0.43;0.43;;;-0.50;99.90;;;;;;4861660;29;20278;-65
2024/01/10 17:31:56;;;;;;;1.00;1.00;;;-0.50;99.90;;;;;;4862204;29;20616;-66
2024/01/10 17:34:21;;;;;;;0.50;0.50;;;-0.40;99.90;;;;;;4852965;29;20192;-67
2024/01/10 17:36:47;;;;;;;0.50;0.50;;;-0.50;99.90;;;;;;4848449;29;20550;-67
2024/01/10 17:39:14;;;;;;;0.40;0.40;;;-0.50;99.90;;;;;;4863925;29;20182;-66
2024/01/10 17:41:39;;;;;;;0.50;0.50;;;-0.50;99.90;;;;;;4865686;29;20227;-67
2024/01/10 17:44:05;;;;;;;1.33;1.23;;;-0.50;99.90;;;;;;4860971;29;20203;-69
2024/01/10 17:46:31;;;;;;;0.40;0.40;;;-0.50;99.90;;;;;;4861780;29;20192;-67
2024/01/10 17:48:57;;;;;;;0.50;0.50;;;-0.50;99.90;;;;;;4861963;29;20203;-64
2024/01/10 17:51:24;;;;;;;0.40;0.40;;;-0.50;99.90;;;;;;4852017;29;20187;-67
2024/01/10 17:53:50;;;;;;;0.40;0.40;;;-0.50;99.90;;;;;;4842884;29;20195;-66
2024/01/10 17:56:16;;;;;;;0.40;0.40;;;-0.50;99.90;;;;;;4855043;29;20202;-65